Time;durP1;ratioP1;P1;durP2;ratioP2;P2;SDS_P1;SDS_P2;PMS_P1;PMS_P2;Temp;Humidity;BMP_temperature;BMP_pressure;BME280_temperature;BME280_humidity;BME280_pressure;Samples;Min_cycle;Max_cycle;Signal;HPM_P1;HPM_P2
2021/09/11 00:00:16;;;;;;;10.27;6.72;;;;;;;;;;5027395;28;20430;-65
2021/09/11 00:02:45;;;;;;;10.70;6.75;;;;;;;;;;5023279;28;20049;-66
2021/09/11 00:05:15;;;;;;;10.73;6.60;;;;;;;;;;5024542;28;20064;-66
2021/09/11 00:07:44;;;;;;;10.82;6.40;;;;;;;;;;5014711;28;20092;-66
2021/09/11 00:10:14;;;;;;;10.15;6.22;;;;;;;;;;5029304;28;20046;-66
2021/09/11 00:12:45;;;;;;;11.93;6.95;;;;;;;;;;5012287;28;20073;-67
2021/09/11 00:15:17;;;;;;;12.52;7.05;;;;;;;;;;5015448;28;20054;-66
2021/09/11 00:17:47;;;;;;;11.73;6.85;;;;;;;;;;5011332;28;20061;-66
2021/09/11 00:20:16;;;;;;;10.38;7.10;;;;;;;;;;5024193;28;20065;-66
2021/09/11 00:22:44;;;;;;;13.50;7.53;;;;;;;;;;5010337;28;20081;-66
2021/09/11 00:25:13;;;;;;;15.10;8.27;;;;;;;;;;5010460;28;20050;-66
2021/09/11 00:27:41;;;;;;;16.10;9.77;;;;;;;;;;5010647;28;20407;-69
2021/09/11 00:30:10;;;;;;;16.10;8.38;;;;;;;;;;5015346;28;20054;-67
2021/09/11 00:32:43;;;;;;;14.88;7.97;;;;;;;;;;5024825;28;20050;-66
2021/09/11 00:35:12;;;;;;;14.18;7.88;;;;;;;;;;5010257;28;20249;-66
2021/09/11 00:37:40;;;;;;;17.15;8.20;;;;;;;;;;5011114;28;20128;-67
2021/09/11 00:40:09;;;;;;;17.38;8.82;;;;;;;;;;5018651;28;20152;-66
2021/09/11 00:42:40;;;;;;;15.48;9.00;;;;;;;;;;5010537;28;20141;-67
2021/09/11 00:45:09;;;;;;;15.15;8.55;;;;;;;;;;5010000;28;20150;-67
2021/09/11 00:47:39;;;;;;;15.18;8.57;;;;;;;;;;5011143;28;20049;-67
2021/09/11 00:50:08;;;;;;;16.63;8.90;;;;;;;;;;5019070;28;20137;-67
2021/09/11 00:52:36;;;;;;;19.50;9.77;;;;;;;;;;5011720;28;20049;-67
2021/09/11 00:55:05;;;;;;;15.88;8.82;;;;;;;;;;5012002;28;20502;-68
2021/09/11 00:57:33;;;;;;;15.85;8.98;;;;;;;;;;5020455;28;20492;-68
2021/09/11 01:00:01;;;;;;;17.27;9.02;;;;;;;;;;5013586;28;20046;-68
2021/09/11 01:02:29;;;;;;;18.30;8.93;;;;;;;;;;5014468;28;20046;-68
2021/09/11 01:04:59;;;;;;;19.67;9.88;;;;;;;;;;5016224;28;20069;-68
2021/09/11 01:07:29;;;;;;;18.35;10.60;;;;;;;;;;5024331;28;20057;-68
2021/09/11 01:09:57;;;;;;;16.42;10.32;;;;;;;;;;5014422;28;20088;-68
2021/09/11 01:12:26;;;;;;;17.92;9.73;;;;;;;;;;5009363;28;20085;-69
2021/09/11 01:14:54;;;;;;;16.60;9.45;;;;;;;;;;5008597;28;20042;-68
2021/09/11 01:17:23;;;;;;;17.67;10.35;;;;;;;;;;5009239;28;20050;-68
2021/09/11 01:19:51;;;;;;;22.80;11.43;;;;;;;;;;5015442;28;20042;-68
2021/09/11 01:22:20;;;;;;;21.00;11.05;;;;;;;;;;5015568;28;20482;-68
2021/09/11 01:24:54;;;;;;;19.02;10.75;;;;;;;;;;5020330;28;20056;-68
2021/09/11 01:27:23;;;;;;;17.10;10.43;;;;;;;;;;5015086;28;20049;-68
2021/09/11 01:29:55;;;;;;;20.95;11.73;;;;;;;;;;5010799;28;20174;-68
2021/09/11 01:32:23;;;;;;;18.88;10.23;;;;;;;;;;5022134;28;20056;-68
2021/09/11 01:34:52;;;;;;;18.77;11.35;;;;;;;;;;5014028;28;20046;-68
2021/09/11 01:37:21;;;;;;;17.83;9.82;;;;;;;;;;5024977;28;20128;-69
2021/09/11 01:39:49;;;;;;;18.00;10.70;;;;;;;;;;5013240;28;20050;-69
2021/09/11 01:42:20;;;;;;;17.83;10.25;;;;;;;;;;5009254;28;20528;-68
2021/09/11 01:44:49;;;;;;;17.02;10.45;;;;;;;;;;5012698;28;20060;-69
2021/09/11 01:47:17;;;;;;;18.83;10.95;;;;;;;;;;5010903;28;20294;-69
2021/09/11 01:49:46;;;;;;;17.83;10.00;;;;;;;;;;5010901;28;20084;-68
2021/09/11 01:52:14;;;;;;;23.10;11.13;;;;;;;;;;5012888;28;20437;-69
2021/09/11 01:54:43;;;;;;;15.52;9.90;;;;;;;;;;5014666;28;20064;-69
2021/09/11 01:57:11;;;;;;;15.60;9.90;;;;;;;;;;5020648;28;20443;-69
2021/09/11 01:59:41;;;;;;;21.40;10.90;;;;;;;;;;5024312;28;20106;-69
2021/09/11 02:02:10;;;;;;;16.73;10.02;;;;;;;;;;5017424;28;20045;-68
2021/09/11 02:04:39;;;;;;;16.50;9.88;;;;;;;;;;5013761;28;20120;-69
2021/09/11 02:07:08;;;;;;;18.73;10.43;;;;;;;;;;5014725;28;20465;-68
2021/09/11 02:09:37;;;;;;;16.70;10.05;;;;;;;;;;5013778;28;20577;-69
2021/09/11 02:12:05;;;;;;;13.48;8.98;;;;;;;;;;5014430;28;20042;-69
2021/09/11 02:14:34;;;;;;;16.52;10.38;;;;;;;;;;5013665;28;20056;-69
2021/09/11 02:17:04;;;;;;;18.20;10.15;;;;;;;;;;5014111;28;20046;-69
2021/09/11 02:19:32;;;;;;;20.77;10.80;;;;;;;;;;5017677;28;20041;-69
2021/09/11 02:22:01;;;;;;;17.80;9.98;;;;;;;;;;5021083;28;20532;-69
2021/09/11 02:24:30;;;;;;;17.27;9.50;;;;;;;;;;5023592;28;20049;-69
2021/09/11 02:27:03;;;;;;;20.80;11.57;;;;;;;;;;5033943;28;20132;-69
2021/09/11 02:29:31;;;;;;;18.20;10.73;;;;;;;;;;5019962;28;20053;-69
2021/09/11 02:32:01;;;;;;;17.85;10.82;;;;;;;;;;5033160;28;20057;-69
2021/09/11 02:34:31;;;;;;;19.92;11.40;;;;;;;;;;5017917;28;20057;-69
2021/09/11 02:36:59;;;;;;;17.65;10.25;;;;;;;;;;5013557;28;20454;-69
2021/09/11 02:39:27;;;;;;;25.02;10.93;;;;;;;;;;5013517;28;20056;-68
2021/09/11 02:41:56;;;;;;;18.23;10.60;;;;;;;;;;5013639;28;20050;-68
2021/09/11 02:44:24;;;;;;;17.48;9.98;;;;;;;;;;5012039;28;20140;-69
2021/09/11 02:46:52;;;;;;;18.52;10.13;;;;;;;;;;5012735;28;20049;-68
2021/09/11 02:49:20;;;;;;;16.75;9.85;;;;;;;;;;5012167;28;20049;-69
2021/09/11 02:51:50;;;;;;;16.30;9.60;;;;;;;;;;5012841;28;20221;-69
2021/09/11 02:54:18;;;;;;;17.35;9.77;;;;;;;;;;5012877;28;20085;-68
2021/09/11 02:56:46;;;;;;;16.10;9.80;;;;;;;;;;5015627;28;20050;-68
2021/09/11 02:59:15;;;;;;;16.58;9.68;;;;;;;;;;5019153;28;20056;-68
2021/09/11 03:01:43;;;;;;;14.57;9.63;;;;;;;;;;5016616;28;20045;-69
2021/09/11 03:04:12;;;;;;;16.27;9.38;;;;;;;;;;5018310;28;20053;-69
2021/09/11 03:06:40;;;;;;;16.30;9.65;;;;;;;;;;5012744;28;20053;-69
2021/09/11 03:09:09;;;;;;;15.23;9.18;;;;;;;;;;5013601;28;20136;-68
2021/09/11 03:11:38;;;;;;;16.25;10.00;;;;;;;;;;5013429;28;20046;-68
2021/09/11 03:14:06;;;;;;;16.80;10.05;;;;;;;;;;5014249;28;20072;-69
2021/09/11 03:16:34;;;;;;;18.27;9.10;;;;;;;;;;5012738;28;20046;-69
2021/09/11 03:19:02;;;;;;;15.95;9.00;;;;;;;;;;5023637;28;20061;-69
2021/09/11 03:21:31;;;;;;;16.77;9.52;;;;;;;;;;5012900;28;20052;-69
2021/09/11 03:23:59;;;;;;;14.80;9.10;;;;;;;;;;5016503;28;20054;-69
2021/09/11 03:26:48;;;;;;;14.18;7.18;;;;;;;;;;1963279;28;10022745;-69
2021/09/11 03:29:16;;;;;;;15.65;9.50;;;;;;;;;;3972982;28;10001268;-69
2021/09/11 03:31:44;;;;;;;13.43;7.97;;;;;;;;;;5011489;28;20100;-69
2021/09/11 03:34:13;;;;;;;16.75;9.27;;;;;;;;;;5010707;28;20053;-69
2021/09/11 03:36:41;;;;;;;14.80;8.63;;;;;;;;;;5012288;28;20042;-69
2021/09/11 03:39:09;;;;;;;13.85;8.10;;;;;;;;;;5011672;28;20138;-69
2021/09/11 03:41:37;;;;;;;11.30;7.43;;;;;;;;;;5012135;28;20050;-68
2021/09/11 03:44:08;;;;;;;12.32;7.63;;;;;;;;;;5006502;28;20038;-69
2021/09/11 03:46:36;;;;;;;11.88;7.05;;;;;;;;;;4995863;28;20048;-69
2021/09/11 03:49:04;;;;;;;11.38;7.25;;;;;;;;;;5011541;28;20045;-70
2021/09/11 03:51:34;;;;;;;11.30;7.18;;;;;;;;;;5011550;28;20073;-69
2021/09/11 03:54:02;;;;;;;10.57;6.55;;;;;;;;;;5011018;28;20064;-69
2021/09/11 03:56:31;;;;;;;10.98;7.05;;;;;;;;;;5011221;28;20038;-69
2021/09/11 03:58:59;;;;;;;13.25;7.15;;;;;;;;;;5006813;28;20052;-68
2021/09/11 04:01:29;;;;;;;11.27;6.63;;;;;;;;;;5009639;28;20073;-68
2021/09/11 04:03:57;;;;;;;11.13;6.55;;;;;;;;;;4995496;28;20058;-69
2021/09/11 04:06:26;;;;;;;8.18;5.70;;;;;;;;;;4997387;28;20049;-69
2021/09/11 04:08:54;;;;;;;11.10;6.93;;;;;;;;;;5011358;28;20042;-69
2021/09/11 04:11:22;;;;;;;8.70;5.80;;;;;;;;;;5011616;28;20398;-68
2021/09/11 04:13:50;;;;;;;10.23;6.25;;;;;;;;;;5010199;28;20069;-69
2021/09/11 04:16:18;;;;;;;9.00;6.00;;;;;;;;;;5010784;28;20053;-68
2021/09/11 04:18:48;;;;;;;10.75;6.43;;;;;;;;;;5009590;28;20054;-69
2021/09/11 04:21:16;;;;;;;12.20;5.22;;;;;;;;;;5010128;28;20398;-69
2021/09/11 04:23:45;;;;;;;7.88;5.35;;;;;;;;;;5010668;28;20589;-69
2021/09/11 04:26:13;;;;;;;8.38;5.57;;;;;;;;;;5011623;28;20060;-69
2021/09/11 04:28:41;;;;;;;11.10;5.95;;;;;;;;;;5009849;28;20053;-69
2021/09/11 04:31:12;;;;;;;9.10;6.03;;;;;;;;;;5008058;28;20046;-68
2021/09/11 04:33:40;;;;;;;13.48;6.05;;;;;;;;;;5010113;28;20050;-68
2021/09/11 04:36:10;;;;;;;10.20;5.88;;;;;;;;;;5003313;28;20054;-68
2021/09/11 04:38:38;;;;;;;8.77;5.47;;;;;;;;;;5010345;28;20136;-68
2021/09/11 04:41:06;;;;;;;8.50;5.20;;;;;;;;;;5010866;28;20075;-68
2021/09/11 04:43:35;;;;;;;8.82;5.30;;;;;;;;;;5008930;28;20546;-68
2021/09/11 04:46:03;;;;;;;7.28;4.93;;;;;;;;;;5009779;28;20046;-69
2021/09/11 04:48:31;;;;;;;9.80;5.13;;;;;;;;;;5010122;28;20084;-69
2021/09/11 04:50:59;;;;;;;8.07;4.93;;;;;;;;;;5010096;28;20050;-68
2021/09/11 04:53:29;;;;;;;7.30;4.85;;;;;;;;;;5008655;28;20073;-68
2021/09/11 04:55:57;;;;;;;7.82;4.03;;;;;;;;;;5009582;28;20053;-69
2021/09/11 04:58:26;;;;;;;8.32;4.68;;;;;;;;;;5010003;28;20133;-68
2021/09/11 05:00:54;;;;;;;8.38;4.80;;;;;;;;;;5009491;28;20092;-68
2021/09/11 05:03:22;;;;;;;8.65;5.35;;;;;;;;;;5008936;28;20126;-68
2021/09/11 05:05:54;;;;;;;6.85;4.80;;;;;;;;;;5008505;28;20100;-68
2021/09/11 05:08:22;;;;;;;7.78;4.65;;;;;;;;;;5008812;28;20129;-68
2021/09/11 05:10:52;;;;;;;6.80;4.28;;;;;;;;;;5002111;28;20156;-69
2021/09/11 05:13:20;;;;;;;8.65;4.85;;;;;;;;;;5008851;28;20046;-69
2021/09/11 05:15:48;;;;;;;7.07;4.78;;;;;;;;;;5009870;28;20046;-69
2021/09/11 05:18:17;;;;;;;7.75;4.90;;;;;;;;;;4992709;28;20133;-68
2021/09/11 05:20:45;;;;;;;7.72;4.68;;;;;;;;;;5010665;28;20140;-68
2021/09/11 05:23:13;;;;;;;9.00;4.55;;;;;;;;;;5009856;28;20064;-69
2021/09/11 05:25:41;;;;;;;7.68;4.55;;;;;;;;;;5009335;28;20888;-69
2021/09/11 05:28:11;;;;;;;7.97;5.00;;;;;;;;;;5012996;28;20054;-70
2021/09/11 05:30:39;;;;;;;8.10;4.65;;;;;;;;;;5005470;28;20509;-69
2021/09/11 05:33:07;;;;;;;9.05;5.03;;;;;;;;;;5014454;28;20041;-69
2021/09/11 05:35:40;;;;;;;8.13;4.60;;;;;;;;;;5013252;28;20097;-68
2021/09/11 05:38:08;;;;;;;9.60;4.95;;;;;;;;;;5013178;28;20125;-69
2021/09/11 05:40:37;;;;;;;7.25;5.03;;;;;;;;;;5014156;28;20041;-69
2021/09/11 05:43:05;;;;;;;10.25;5.13;;;;;;;;;;5013517;28;20449;-69
2021/09/11 05:45:35;;;;;;;6.75;4.35;;;;;;;;;;5012681;28;20144;-69
2021/09/11 05:48:03;;;;;;;7.13;4.60;;;;;;;;;;5014773;28;20046;-69
2021/09/11 05:50:31;;;;;;;7.22;4.90;;;;;;;;;;5013906;28;20233;-70
2021/09/11 05:53:00;;;;;;;6.50;4.65;;;;;;;;;;5012232;28;20041;-69
2021/09/11 05:55:28;;;;;;;8.35;5.13;;;;;;;;;;5012096;28;20049;-69
2021/09/11 05:57:56;;;;;;;7.95;5.05;;;;;;;;;;5013558;28;20143;-69
2021/09/11 06:00:25;;;;;;;8.27;4.80;;;;;;;;;;5007144;28;20498;-69
2021/09/11 06:02:54;;;;;;;8.80;4.93;;;;;;;;;;5006209;28;20042;-69
2021/09/11 06:05:24;;;;;;;9.90;5.38;;;;;;;;;;5013242;28;20054;-69
2021/09/11 06:07:52;;;;;;;11.50;5.55;;;;;;;;;;5012270;28;20096;-69
2021/09/11 06:10:20;;;;;;;8.27;5.22;;;;;;;;;;5004873;28;20152;-69
2021/09/11 06:12:49;;;;;;;7.70;5.28;;;;;;;;;;5014618;28;20045;-69
2021/09/11 06:15:18;;;;;;;8.93;5.68;;;;;;;;;;5012324;28;20042;-69
2021/09/11 06:17:46;;;;;;;8.13;5.40;;;;;;;;;;5007381;28;20042;-69
2021/09/11 06:20:16;;;;;;;8.70;5.25;;;;;;;;;;5010495;28;20046;-69
2021/09/11 06:22:44;;;;;;;9.25;5.05;;;;;;;;;;5013149;28;20137;-70
2021/09/11 06:25:14;;;;;;;9.77;5.13;;;;;;;;;;5011604;28;20050;-69
2021/09/11 06:27:43;;;;;;;8.65;4.88;;;;;;;;;;5012925;28;20057;-69
2021/09/11 06:30:11;;;;;;;7.32;4.55;;;;;;;;;;5007869;28;20045;-70
2021/09/11 06:32:40;;;;;;;8.80;5.07;;;;;;;;;;5013141;28;20078;-69
2021/09/11 06:35:08;;;;;;;7.60;5.05;;;;;;;;;;5010767;28;20054;-70
2021/09/11 06:37:38;;;;;;;7.35;4.82;;;;;;;;;;5009928;28;20053;-70
2021/09/11 06:40:07;;;;;;;8.55;5.00;;;;;;;;;;5009709;28;20421;-69
2021/09/11 06:42:35;;;;;;;7.97;4.90;;;;;;;;;;5007244;28;20380;-70
2021/09/11 06:45:03;;;;;;;9.38;5.43;;;;;;;;;;5005717;28;20473;-69
2021/09/11 06:47:31;;;;;;;7.63;5.28;;;;;;;;;;5008066;28;20054;-69
2021/09/11 06:50:00;;;;;;;13.73;5.20;;;;;;;;;;5008776;28;20483;-70
2021/09/11 06:52:28;;;;;;;9.07;5.40;;;;;;;;;;5004458;28;20042;-70
2021/09/11 06:54:59;;;;;;;8.50;5.38;;;;;;;;;;5008653;28;20063;-70
2021/09/11 06:57:27;;;;;;;8.77;5.28;;;;;;;;;;5008790;28;20050;-70
2021/09/11 06:59:56;;;;;;;9.10;4.90;;;;;;;;;;5008975;28;20049;-70
2021/09/11 07:02:24;;;;;;;8.45;5.53;;;;;;;;;;5007299;28;20061;-70
2021/09/11 07:04:53;;;;;;;8.45;5.32;;;;;;;;;;5009369;28;20104;-70
2021/09/11 07:07:21;;;;;;;9.43;6.05;;;;;;;;;;5008294;28;20513;-70
2021/09/11 07:09:49;;;;;;;9.05;5.63;;;;;;;;;;5009361;28;20133;-71
2021/09/11 07:12:22;;;;;;;9.25;5.18;;;;;;;;;;5009737;28;20085;-70
2021/09/11 07:14:51;;;;;;;8.60;4.93;;;;;;;;;;5006617;28;20060;-71
2021/09/11 07:17:19;;;;;;;7.72;5.20;;;;;;;;;;4998703;28;20073;-69
2021/09/11 07:19:47;;;;;;;8.98;5.65;;;;;;;;;;5010882;28;20516;-70
2021/09/11 07:22:15;;;;;;;8.20;5.22;;;;;;;;;;5009861;28;20060;-70
2021/09/11 07:24:44;;;;;;;8.50;5.32;;;;;;;;;;5006625;28;20060;-69
2021/09/11 07:27:20;;;;;;;8.20;4.95;;;;;;;;;;5007373;28;20045;-69
2021/09/11 07:29:48;;;;;;;7.47;4.72;;;;;;;;;;5007384;28;20136;-70
2021/09/11 07:32:20;;;;;;;8.45;5.28;;;;;;;;;;5007089;28;20046;-69
2021/09/11 07:34:51;;;;;;;8.13;5.35;;;;;;;;;;5006029;28;20077;-69
2021/09/11 07:37:19;;;;;;;7.93;5.00;;;;;;;;;;5006695;28;20045;-69
2021/09/11 07:39:48;;;;;;;7.20;4.53;;;;;;;;;;5000846;28;20045;-69
2021/09/11 07:42:21;;;;;;;8.63;5.45;;;;;;;;;;5005942;28;20137;-69
2021/09/11 07:44:49;;;;;;;9.18;5.10;;;;;;;;;;5007502;28;20145;-69
2021/09/11 07:47:18;;;;;;;7.18;4.80;;;;;;;;;;5006882;28;20092;-69
2021/09/11 07:49:46;;;;;;;7.97;4.97;;;;;;;;;;5006939;28;20713;-69
2021/09/11 07:52:21;;;;;;;11.57;6.85;;;;;;;;;;5006099;28;20065;-69
2021/09/11 07:54:49;;;;;;;7.95;4.72;;;;;;;;;;4994463;28;20056;-69
2021/09/11 07:57:18;;;;;;;8.95;5.05;;;;;;;;;;4995241;28;20041;-69
2021/09/11 07:59:54;;;;;;;7.25;5.22;;;;;;;;;;4997785;28;20077;-69
2021/09/11 08:02:26;;;;;;;7.20;4.60;;;;;;;;;;4991952;28;20084;-70
2021/09/11 08:04:55;;;;;;;10.35;4.65;;;;;;;;;;5007255;28;20328;-69
2021/09/11 08:07:27;;;;;;;7.60;5.35;;;;;;;;;;5007861;28;20545;-69
2021/09/11 08:09:56;;;;;;;8.27;4.68;;;;;;;;;;5007201;28;20450;-69
2021/09/11 08:12:24;;;;;;;8.98;4.90;;;;;;;;;;5008012;28;20142;-69
2021/09/11 08:14:54;;;;;;;8.80;5.28;;;;;;;;;;5007411;28;20156;-69
2021/09/11 08:17:22;;;;;;;7.22;4.93;;;;;;;;;;4999716;28;20069;-70
2021/09/11 08:19:51;;;;;;;7.95;4.70;;;;;;;;;;4990796;28;20043;-70
2021/09/11 08:22:19;;;;;;;7.45;4.93;;;;;;;;;;4990972;28;20400;-69
2021/09/11 08:24:48;;;;;;;5.65;4.45;;;;;;;;;;4997053;28;20064;-69
2021/09/11 08:27:16;;;;;;;7.90;4.90;;;;;;;;;;5002737;28;20076;-69
2021/09/11 08:29:45;;;;;;;6.60;4.70;;;;;;;;;;5004731;28;20056;-69
2021/09/11 08:32:15;;;;;;;8.05;4.97;;;;;;;;;;5008149;28;20057;-69
2021/09/11 08:34:43;;;;;;;6.38;4.35;;;;;;;;;;5019683;28;20134;-70
2021/09/11 08:37:11;;;;;;;6.80;4.68;;;;;;;;;;5002125;28;20489;-70
2021/09/11 08:39:39;;;;;;;7.72;5.10;;;;;;;;;;4992411;28;20133;-71
2021/09/11 08:42:08;;;;;;;7.30;4.03;;;;;;;;;;5001987;28;20046;-71
2021/09/11 08:44:36;;;;;;;7.03;4.93;;;;;;;;;;4995661;28;20583;-71
2021/09/11 08:47:05;;;;;;;6.13;4.35;;;;;;;;;;5004365;28;20081;-70
2021/09/11 08:49:35;;;;;;;7.25;4.78;;;;;;;;;;4994540;28;20049;-70
2021/09/11 08:52:04;;;;;;;7.07;4.50;;;;;;;;;;5001223;28;20060;-69
2021/09/11 08:54:32;;;;;;;8.32;4.95;;;;;;;;;;5003829;28;20558;-68
2021/09/11 08:57:17;;;;;;;7.65;5.30;;;;;;;;;;5003508;28;20117;-66
2021/09/11 08:59:45;;;;;;;6.95;4.60;;;;;;;;;;5001734;28;20060;-66
2021/09/11 09:02:14;;;;;;;6.72;4.55;;;;;;;;;;5000261;28;20057;-66
2021/09/11 09:04:44;;;;;;;5.88;4.18;;;;;;;;;;5001494;28;20093;-67
2021/09/11 09:07:13;;;;;;;6.90;4.13;;;;;;;;;;4987021;28;20046;-67
2021/09/11 09:09:41;;;;;;;5.50;3.53;;;;;;;;;;4995137;28;20050;-66
2021/09/11 09:12:14;;;;;;;6.68;4.75;;;;;;;;;;4998379;28;20045;-67
2021/09/11 09:14:58;;;;;;;8.73;4.90;;;;;;;;;;4986911;28;20422;-66
2021/09/11 09:17:38;;;;;;;7.18;4.30;;;;;;;;;;4992457;28;20479;-67
2021/09/11 09:20:12;;;;;;;6.07;4.40;;;;;;;;;;4991665;28;20060;-66
2021/09/11 09:22:41;;;;;;;7.15;4.57;;;;;;;;;;4991530;28;20464;-67
2021/09/11 09:25:21;;;;;;;6.90;4.30;;;;;;;;;;4993701;28;20125;-67
2021/09/11 09:27:51;;;;;;;6.68;4.20;;;;;;;;;;4993643;28;20086;-67
2021/09/11 09:30:20;;;;;;;5.10;3.70;;;;;;;;;;4998057;28;20391;-67
2021/09/11 09:32:50;;;;;;;8.15;4.10;;;;;;;;;;5001102;28;20123;-67
2021/09/11 09:35:24;;;;;;;6.53;4.65;;;;;;;;;;4998198;28;20137;-67
2021/09/11 09:37:55;;;;;;;6.70;4.20;;;;;;;;;;4992253;28;20066;-67
2021/09/11 09:40:37;;;;;;;6.25;4.22;;;;;;;;;;4993214;28;20408;-67
2021/09/11 09:43:06;;;;;;;7.03;4.15;;;;;;;;;;4992556;28;20463;-67
2021/09/11 09:45:35;;;;;;;5.90;4.22;;;;;;;;;;5007031;28;20531;-67
2021/09/11 09:48:05;;;;;;;8.18;4.25;;;;;;;;;;5007345;28;20068;-67
2021/09/11 09:50:36;;;;;;;6.85;4.38;;;;;;;;;;4986504;28;20141;-67
2021/09/11 09:53:05;;;;;;;8.73;4.68;;;;;;;;;;5001494;28;20128;-68
2021/09/11 09:55:34;;;;;;;5.43;4.38;;;;;;;;;;5005776;28;20049;-67
2021/09/11 09:58:03;;;;;;;6.75;4.38;;;;;;;;;;5003866;28;20053;-66
2021/09/11 10:00:31;;;;;;;8.93;5.03;;;;;;;;;;5004263;28;20487;-67
2021/09/11 10:03:00;;;;;;;7.25;4.45;;;;;;;;;;5001054;28;20509;-69
2021/09/11 10:05:30;;;;;;;6.65;4.65;;;;;;;;;;4993497;28;20137;-69
2021/09/11 10:08:02;;;;;;;7.60;4.75;;;;;;;;;;5005476;28;20132;-68
2021/09/11 10:10:32;;;;;;;5.70;4.30;;;;;;;;;;4991576;28;20759;-68
2021/09/11 10:13:07;;;;;;;5.68;4.18;;;;;;;;;;4997031;28;20478;-68
2021/09/11 10:15:37;;;;;;;7.13;4.20;;;;;;;;;;5005465;28;20060;-69
2021/09/11 10:18:26;;;;;;;7.50;3.85;;;;;;;;;;5010504;28;20050;-69
2021/09/11 10:21:17;;;;;;;6.72;4.43;;;;;;;;;;5005310;28;20811;-69
2021/09/11 10:24:07;;;;;;;6.72;4.22;;;;;;;;;;5001844;28;20480;-69
2021/09/11 10:26:48;;;;;;;6.65;4.35;;;;;;;;;;5004905;28;20085;-69
2021/09/11 10:29:35;;;;;;;5.93;4.15;;;;;;;;;;5012147;28;20056;-71
2021/09/11 10:32:06;;;;;;;7.07;4.32;;;;;;;;;;4996753;28;20054;-70
2021/09/11 10:34:44;;;;;;;6.65;4.32;;;;;;;;;;5007036;28;20041;-71
2021/09/11 10:37:12;;;;;;;8.63;4.47;;;;;;;;;;5009845;28;20129;-70
2021/09/11 10:39:44;;;;;;;8.55;4.60;;;;;;;;;;5008464;28;20053;-70
2021/09/11 10:42:13;;;;;;;6.53;4.00;;;;;;;;;;5004202;28;20532;-70
2021/09/11 10:44:41;;;;;;;5.45;3.70;;;;;;;;;;4997582;28;20354;-70
2021/09/11 10:47:09;;;;;;;7.95;4.07;;;;;;;;;;4996651;28;20045;-69
2021/09/11 10:49:39;;;;;;;4.85;3.80;;;;;;;;;;4997693;28;20522;-69
2021/09/11 10:52:08;;;;;;;9.13;4.43;;;;;;;;;;5002811;28;20584;-69
2021/09/11 10:54:38;;;;;;;7.90;4.78;;;;;;;;;;5005743;28;20621;-68
2021/09/11 10:57:12;;;;;;;5.70;4.03;;;;;;;;;;5005392;28;20532;-69
2021/09/11 10:59:42;;;;;;;6.50;3.97;;;;;;;;;;5000628;28;20133;-69
2021/09/11 11:02:25;;;;;;;8.57;4.43;;;;;;;;;;4999130;28;20046;-69
2021/09/11 11:04:55;;;;;;;7.22;4.43;;;;;;;;;;5003730;28;20172;-69
2021/09/11 11:07:25;;;;;;;6.55;4.35;;;;;;;;;;5001715;28;20153;-69
2021/09/11 11:09:54;;;;;;;7.97;4.57;;;;;;;;;;4992807;28;20057;-69
2021/09/11 11:12:24;;;;;;;6.28;4.47;;;;;;;;;;4992623;28;20545;-69
2021/09/11 11:14:55;;;;;;;5.47;4.05;;;;;;;;;;5000692;28;20133;-69
2021/09/11 11:17:24;;;;;;;6.57;4.20;;;;;;;;;;4995151;28;20089;-69
2021/09/11 11:19:53;;;;;;;6.18;3.90;;;;;;;;;;4987952;28;20467;-69
2021/09/11 11:22:25;;;;;;;7.28;4.55;;;;;;;;;;4989777;28;20085;-69
2021/09/11 11:24:54;;;;;;;5.70;4.15;;;;;;;;;;4994673;28;20065;-69
2021/09/11 11:27:24;;;;;;;6.30;4.53;;;;;;;;;;5008537;28;20089;-70
2021/09/11 11:29:53;;;;;;;6.82;4.32;;;;;;;;;;5004909;28;20064;-69
2021/09/11 11:32:22;;;;;;;8.55;4.65;;;;;;;;;;4997950;28;20486;-68
2021/09/11 11:34:55;;;;;;;7.03;4.47;;;;;;;;;;5004045;28;20052;-68
2021/09/11 11:37:23;;;;;;;6.82;4.47;;;;;;;;;;5006996;28;20052;-69
2021/09/11 11:39:52;;;;;;;7.07;4.60;;;;;;;;;;5001878;28;20530;-68
2021/09/11 11:42:22;;;;;;;7.72;4.57;;;;;;;;;;4999338;28;20081;-69
2021/09/11 11:44:53;;;;;;;7.57;4.88;;;;;;;;;;4996616;28;20048;-68
2021/09/11 11:47:30;;;;;;;6.78;4.85;;;;;;;;;;5001927;28;20050;-68
2021/09/11 11:49:59;;;;;;;7.47;4.80;;;;;;;;;;5005503;28;20096;-68
2021/09/11 11:52:30;;;;;;;6.38;4.85;;;;;;;;;;5008421;28;20050;-68
2021/09/11 11:54:59;;;;;;;7.13;4.68;;;;;;;;;;5009047;28;20054;-68
2021/09/11 11:57:32;;;;;;;4.45;3.72;;;;;;;;;;5007286;28;20706;-68
2021/09/11 12:00:02;;;;;;;6.38;4.20;;;;;;;;;;5009285;28;20076;-68
2021/09/11 12:02:31;;;;;;;6.88;4.55;;;;;;;;;;5004603;28;20569;-68
2021/09/11 12:05:12;;;;;;;7.78;4.38;;;;;;;;;;5003601;28;20054;-68
2021/09/11 12:07:41;;;;;;;6.63;4.10;;;;;;;;;;5008518;28;20093;-68
2021/09/11 12:10:16;;;;;;;7.45;4.30;;;;;;;;;;5007299;28;20188;-68
2021/09/11 12:12:45;;;;;;;6.22;4.03;;;;;;;;;;4994086;28;20053;-67
2021/09/11 12:15:17;;;;;;;12.10;5.00;;;;;;;;;;4995918;28;20686;-67
2021/09/11 12:17:52;;;;;;;14.18;4.80;;;;;;;;;;4992959;28;20050;-68
2021/09/11 12:20:42;;;;;;;9.57;5.13;;;;;;;;;;4994168;28;20420;-68
2021/09/11 12:23:13;;;;;;;7.07;4.93;;;;;;;;;;4990248;28;20055;-67
2021/09/11 12:25:51;;;;;;;6.75;4.53;;;;;;;;;;4990183;28;20130;-67
2021/09/11 12:28:38;;;;;;;13.88;6.38;;;;;;;;;;5005832;28;20474;-65
2021/09/11 12:31:09;;;;;;;11.55;6.03;;;;;;;;;;5004910;28;20089;-65
2021/09/11 12:33:41;;;;;;;9.52;6.28;;;;;;;;;;5002518;28;20466;-65
2021/09/11 12:36:34;;;;;;;8.85;5.55;;;;;;;;;;5000635;28;20054;-65
2021/09/11 12:39:04;;;;;;;10.63;5.55;;;;;;;;;;4988730;28;20045;-65
2021/09/11 12:41:33;;;;;;;8.88;5.82;;;;;;;;;;5003598;28;20049;-65
2021/09/11 12:44:02;;;;;;;9.55;6.00;;;;;;;;;;5002094;28;20127;-65
2021/09/11 12:46:33;;;;;;;7.95;5.13;;;;;;;;;;5005653;28;20049;-65
2021/09/11 12:49:03;;;;;;;8.75;5.18;;;;;;;;;;4998523;28;20048;-65
2021/09/11 12:51:31;;;;;;;8.95;5.55;;;;;;;;;;5004565;28;20194;-65
2021/09/11 12:54:00;;;;;;;11.50;6.22;;;;;;;;;;5003846;28;20129;-66
2021/09/11 12:56:28;;;;;;;7.78;5.47;;;;;;;;;;5006922;28;20069;-66
2021/09/11 12:58:57;;;;;;;8.50;5.68;;;;;;;;;;5001113;28;20056;-66
2021/09/11 13:01:26;;;;;;;7.35;4.68;;;;;;;;;;4999845;28;20053;-66
2021/09/11 13:03:57;;;;;;;9.52;6.00;;;;;;;;;;5005642;28;20506;-66
2021/09/11 13:06:25;;;;;;;10.05;5.32;;;;;;;;;;5004270;28;20064;-66
2021/09/11 13:08:54;;;;;;;9.20;5.63;;;;;;;;;;4999026;28;20074;-66
2021/09/11 13:11:22;;;;;;;7.57;5.15;;;;;;;;;;5003781;28;20073;-66
2021/09/11 13:13:50;;;;;;;9.02;5.10;;;;;;;;;;4999255;28;20136;-66
2021/09/11 13:16:19;;;;;;;6.60;3.78;;;;;;;;;;5004876;28;20062;-66
2021/09/11 13:18:48;;;;;;;7.15;5.00;;;;;;;;;;4996548;28;20441;-66
2021/09/11 13:21:18;;;;;;;6.70;4.43;;;;;;;;;;4998135;28;20046;-66
2021/09/11 13:23:53;;;;;;;7.85;4.90;;;;;;;;;;5006646;28;20076;-66
2021/09/11 13:26:28;;;;;;;5.28;3.75;;;;;;;;;;5001491;28;20144;-66
2021/09/11 13:28:57;;;;;;;6.43;3.63;;;;;;;;;;5003220;28;20045;-66
2021/09/11 13:31:26;;;;;;;7.10;3.58;;;;;;;;;;5000390;28;20045;-65
2021/09/11 13:33:55;;;;;;;4.70;3.40;;;;;;;;;;5001886;28;20054;-66
2021/09/11 13:36:26;;;;;;;6.88;3.08;;;;;;;;;;5004494;28;20504;-66
2021/09/11 13:38:54;;;;;;;5.05;3.50;;;;;;;;;;5006886;28;20155;-66
2021/09/11 13:41:23;;;;;;;3.95;2.83;;;;;;;;;;4996333;28;20380;-66
2021/09/11 13:43:52;;;;;;;4.40;3.15;;;;;;;;;;5009495;28;20137;-66
2021/09/11 13:46:23;;;;;;;4.10;2.80;;;;;;;;;;5005240;28;20407;-66
2021/09/11 13:48:52;;;;;;;5.00;3.35;;;;;;;;;;5007797;28;20053;-66
2021/09/11 13:51:21;;;;;;;3.97;3.08;;;;;;;;;;5003585;28;20053;-67
2021/09/11 13:53:51;;;;;;;4.15;2.97;;;;;;;;;;5000034;28;20057;-67
2021/09/11 13:56:19;;;;;;;4.30;2.67;;;;;;;;;;5011226;28;20050;-67
2021/09/11 13:58:48;;;;;;;5.32;3.10;;;;;;;;;;5011402;28;20481;-67
2021/09/11 14:01:16;;;;;;;4.50;3.00;;;;;;;;;;5012119;28;20449;-67
2021/09/11 14:03:45;;;;;;;4.57;3.40;;;;;;;;;;5011308;28;20050;-67
2021/09/11 14:06:20;;;;;;;6.03;3.42;;;;;;;;;;5011933;28;20046;-67
2021/09/11 14:08:48;;;;;;;9.57;3.42;;;;;;;;;;5011471;28;20257;-67
2021/09/11 14:11:18;;;;;;;4.43;2.97;;;;;;;;;;5009793;28;20049;-66
2021/09/11 14:13:47;;;;;;;4.70;3.10;;;;;;;;;;5010749;28;20060;-67
2021/09/11 14:16:15;;;;;;;4.25;3.15;;;;;;;;;;4998658;28;20057;-66
2021/09/11 14:18:46;;;;;;;5.43;3.08;;;;;;;;;;4990196;28;20517;-66
2021/09/11 14:21:14;;;;;;;4.53;3.40;;;;;;;;;;5005533;28;20046;-66
2021/09/11 14:23:43;;;;;;;4.60;3.22;;;;;;;;;;5000124;28;20139;-65
2021/09/11 14:26:11;;;;;;;18.95;4.18;;;;;;;;;;4994921;28;20060;-65
2021/09/11 14:28:43;;;;;;;4.97;3.20;;;;;;;;;;4989266;28;20054;-65
2021/09/11 14:31:11;;;;;;;3.30;2.63;;;;;;;;;;5003715;28;20428;-65
2021/09/11 14:33:40;;;;;;;3.88;2.72;;;;;;;;;;5008099;28;20521;-65
2021/09/11 14:36:08;;;;;;;4.63;3.03;;;;;;;;;;5008224;28;20631;-65
2021/09/11 14:38:36;;;;;;;5.47;3.33;;;;;;;;;;5007789;28;20049;-65
2021/09/11 14:41:04;;;;;;;5.82;3.35;;;;;;;;;;5008296;28;20481;-65
2021/09/11 14:43:39;;;;;;;;;;;;;;;;;;5006492;28;20057;-65
2021/09/11 14:46:10;;;;;;;6.13;3.53;;;;;;;;;;5000265;28;19932;-65
2021/09/11 14:48:44;;;;;;;3.95;2.83;;;;;;;;;;5003489;28;20138;-64
2021/09/11 14:51:13;;;;;;;5.07;2.80;;;;;;;;;;4994634;28;20050;-64
2021/09/11 14:53:50;;;;;;;5.30;2.75;;;;;;;;;;4998704;28;20149;-64